createdAt,value
2019-01-13T00:01:16.296Z,99846.95
2019-01-13T00:06:18.685Z,99839.95
2019-01-13T00:11:21.386Z,99837.17
2019-01-13T00:16:24.599Z,99833.77
2019-01-13T00:21:27.106Z,99825.09
2019-01-13T00:26:29.846Z,99825.55
2019-01-13T00:31:32.304Z,99827.30
2019-01-13T00:36:34.724Z,99832.39
2019-01-13T00:41:37.831Z,99836.84
2019-01-13T00:46:40.853Z,99841.17
2019-01-13T00:51:44.063Z,99842.16
2019-01-13T00:56:46.232Z,99846.04
2019-01-13T01:01:48.401Z,99847.63
2019-01-13T01:06:50.798Z,99840.70
2019-01-13T01:11:53.573Z,99828.71
2019-01-13T01:16:56.176Z,99839.88
2019-01-13T01:21:59.075Z,99837.91
2019-01-13T01:27:01.966Z,99828.07
2019-01-13T01:32:04.264Z,99837.00
2019-01-13T01:37:06.457Z,99844.94
2019-01-13T01:42:09.148Z,99844.94
2019-01-13T01:47:11.326Z,99854.89
2019-01-13T01:52:13.797Z,99861.35
2019-01-13T01:57:16.240Z,99861.09
2019-01-13T02:02:18.772Z,99860.33
2019-01-13T02:07:21.110Z,99857.38
2019-01-13T02:12:23.601Z,99855.55
2019-01-13T02:17:26.029Z,99871.42
2019-01-13T02:22:28.187Z,99859.14
2019-01-13T02:27:30.423Z,99863.74
2019-01-13T02:32:32.620Z,99867.98
2019-01-13T02:37:35.442Z,99873.91
2019-01-13T02:42:38.130Z,99872.05
2019-01-13T02:47:40.875Z,99864.97
2019-01-13T02:52:43.151Z,99853.69
2019-01-13T02:57:45.529Z,99856.20
2019-01-13T03:02:47.849Z,99850.48
2019-01-13T03:07:50.672Z,99852.05
2019-01-13T03:12:53.664Z,99846.97
2019-01-13T03:17:55.849Z,99840.59
2019-01-13T03:22:58.036Z,99850.66
2019-01-13T03:28:00.249Z,99842.63
2019-01-13T03:33:02.547Z,99834.61
2019-01-13T03:38:05.151Z,99848.89
2019-01-13T03:43:07.529Z,99836.81
2019-01-13T03:48:09.685Z,99842.26
2019-01-13T03:53:12.119Z,99843.17
2019-01-13T03:58:14.341Z,99832.95
2019-01-13T04:03:16.800Z,99826.95
2019-01-13T04:08:19.207Z,99843.84
2019-01-13T04:13:21.600Z,99828.05
2019-01-13T04:18:24.314Z,99818.94
2019-01-13T04:23:26.670Z,99823.27
2019-01-13T04:28:28.923Z,99809.52
2019-01-13T04:33:32.299Z,99804.17
2019-01-13T04:38:34.907Z,99806.38
2019-01-13T04:43:37.317Z,99792.55
2019-01-13T04:48:39.753Z,99786.47
2019-01-13T04:53:42.203Z,99781.57
2019-01-13T04:58:45.179Z,99793.56
2019-01-13T05:03:47.682Z,99785.91
2019-01-13T05:08:50.143Z,99780.10
2019-01-13T05:13:53.107Z,99776.23
2019-01-13T05:18:55.634Z,99785.64
2019-01-13T05:23:58.399Z,99785.56
2019-01-13T05:29:00.837Z,99782.98
2019-01-13T05:34:03.272Z,99782.86
2019-01-13T05:39:06.971Z,99779.45
2019-01-13T05:44:09.184Z,99772.08
2019-01-13T05:49:11.348Z,99764.78
2019-01-13T05:54:13.541Z,99761.19
2019-01-13T05:59:15.689Z,99750.98
2019-01-13T06:04:17.905Z,99741.11
2019-01-13T06:09:20.316Z,99730.78
2019-01-13T06:14:22.741Z,99723.87
2019-01-13T06:19:25.693Z,99725.62
2019-01-13T06:24:28.395Z,99719.70
2019-01-13T06:29:30.743Z,99718.87
2019-01-13T06:34:33.109Z,99714.08
2019-01-13T06:39:36.056Z,99719.87
2019-01-13T06:44:39.751Z,99711.22
2019-01-13T06:49:42.622Z,99713.52
2019-01-13T06:54:45.924Z,99712.97
2019-01-13T06:59:48.130Z,99730.47
2019-01-13T07:04:50.714Z,99723.81
2019-01-13T07:09:52.937Z,99713.86
2019-01-13T07:14:55.177Z,99702.16
2019-01-13T07:19:57.939Z,99714.14
2019-01-13T07:25:00.454Z,99681.66
2019-01-13T07:30:07.258Z,99680.16
2019-01-13T07:35:09.835Z,99674.91
2019-01-13T07:40:15.183Z,99666.13
2019-01-13T07:45:21.389Z,99665.30
2019-01-13T07:50:23.948Z,99651.91
2019-01-13T07:55:26.649Z,99644.16
2019-01-13T08:00:33.956Z,99638.66
2019-01-13T08:05:37.288Z,99641.03
2019-01-13T08:10:40.035Z,99625.91
2019-01-13T08:15:42.457Z,99630.31
2019-01-13T08:20:45.557Z,99624.02
2019-01-13T08:25:48.065Z,99619.11
2019-01-13T08:30:51.023Z,99609.05
2019-01-13T08:35:53.429Z,99600.72
2019-01-13T08:40:55.712Z,99593.87
2019-01-13T08:45:57.933Z,99584.82
2019-01-13T08:51:00.108Z,99582.48
2019-01-13T08:56:02.441Z,99575.56
2019-01-13T09:01:05.031Z,99551.02
2019-01-13T09:06:07.610Z,99538.45
2019-01-13T09:11:09.966Z,99517.94
2019-01-13T09:16:12.248Z,99526.98
2019-01-13T09:21:14.783Z,99509.59
2019-01-13T09:26:17.029Z,99499.38
2019-01-13T09:31:20.674Z,99498.19
2019-01-13T09:36:23.209Z,99480.46
2019-01-13T09:41:25.906Z,99463.42
2019-01-13T09:46:28.980Z,99456.69
2019-01-13T09:51:31.218Z,99436.94
2019-01-13T09:56:33.822Z,99426.97
2019-01-13T10:01:36.207Z,99413.67
2019-01-13T10:06:38.536Z,99409.34
2019-01-13T10:11:40.792Z,99395.95
2019-01-13T10:16:43.319Z,99376.33
2019-01-13T10:21:45.969Z,99355.06
2019-01-13T10:26:48.565Z,99342.41
2019-01-13T10:31:51.294Z,99324.89
2019-01-13T10:36:54.802Z,99311.59
2019-01-13T10:41:57.297Z,99285.66
2019-01-13T10:46:59.636Z,99281.32
2019-01-13T10:52:02.401Z,99257.23
2019-01-13T10:57:04.865Z,99244.08
2019-01-13T11:02:07.450Z,99231.48
2019-01-13T11:07:09.726Z,99215.52
2019-01-13T11:12:12.563Z,99192.27
2019-01-13T11:17:14.843Z,99185.70
2019-01-13T11:22:17.232Z,99166.69
2019-01-13T11:27:20.113Z,99151.05
2019-01-13T11:32:22.648Z,99130.84
2019-01-13T11:37:25.243Z,99124.17
2019-01-13T11:42:27.954Z,99107.58
2019-01-13T11:47:30.235Z,99083.99
2019-01-13T11:52:33.162Z,99069.88
2019-01-13T11:57:35.498Z,99059.78
2019-01-13T12:02:38.093Z,99056.13
2019-01-13T12:07:40.683Z,99017.61
2019-01-13T12:12:44.605Z,99005.27
2019-01-13T12:17:47.895Z,98996.36
2019-01-13T12:22:50.542Z,98989.41
2019-01-13T12:27:53.311Z,98976.73
2019-01-13T12:32:57.991Z,98955.48
2019-01-13T12:38:01.268Z,98956.64
2019-01-13T12:43:04.987Z,98943.25
2019-01-13T12:48:07.383Z,98909.09
2019-01-13T12:53:09.537Z,98892.77
2019-01-13T12:58:11.934Z,98890.40
2019-01-13T13:03:14.145Z,98863.63
2019-01-13T13:08:16.562Z,98861.41
2019-01-13T13:13:19.259Z,98849.17
2019-01-13T13:18:21.723Z,98838.61
2019-01-13T13:23:24.213Z,98828.48
2019-01-13T13:28:26.712Z,98811.44
2019-01-13T13:33:28.867Z,98807.91
2019-01-13T13:38:31.764Z,98789.45
2019-01-13T13:43:33.111Z,98795.08
2019-01-13T13:48:35.291Z,98792.95
2019-01-13T13:53:37.504Z,98768.02
2019-01-13T13:58:39.761Z,98769.88
2019-01-13T14:03:45.991Z,98749.18
2019-01-13T14:08:47.192Z,98734.91
2019-01-13T14:13:49.326Z,98733.47
2019-01-13T14:18:51.554Z,98722.75
2019-01-13T14:23:54.471Z,98712.70
2019-01-13T14:28:56.772Z,98702.80
2019-01-13T14:33:59.093Z,98695.08
2019-01-13T14:39:02.041Z,98688.94
2019-01-13T14:44:06.351Z,98685.81
2019-01-13T14:49:09.054Z,98687.50
2019-01-13T14:54:11.797Z,98671.30
2019-01-13T14:59:14.080Z,98667.45
2019-01-13T15:04:16.278Z,98654.47
2019-01-13T15:09:18.795Z,98645.95
2019-01-13T15:14:21.468Z,98634.37
2019-01-13T15:19:24.644Z,98624.70
2019-01-13T15:24:26.833Z,98633.50
2019-01-13T15:29:29.319Z,98620.62
2019-01-13T15:34:31.848Z,98622.27
2019-01-13T15:39:34.003Z,98604.83
2019-01-13T15:44:36.180Z,98594.53
2019-01-13T15:49:38.363Z,98571.06
2019-01-13T15:54:40.698Z,98564.47
2019-01-13T15:59:43.326Z,98566.45
2019-01-13T16:04:45.565Z,98544.16
2019-01-13T16:09:47.702Z,98535.91
2019-01-13T16:14:49.888Z,98517.61
2019-01-13T16:19:52.070Z,98507.25
2019-01-13T16:24:54.247Z,98500.77
2019-01-13T16:29:58.132Z,98501.59
2019-01-13T16:35:00.358Z,98484.16
2019-01-13T16:40:05.164Z,98481.56
2019-01-13T16:45:08.941Z,98466.36
2019-01-13T16:50:19.654Z,98449.36
2019-01-13T16:55:23.546Z,98435.11
2019-01-13T17:00:29.905Z,98428.98
2019-01-13T17:05:32.272Z,98412.62
2019-01-13T17:10:34.674Z,98401.44
2019-01-13T17:15:37.166Z,98388.64
2019-01-13T17:20:39.495Z,98377.11
2019-01-13T17:25:41.644Z,98369.34
2019-01-13T17:30:43.921Z,98356.20
2019-01-13T17:35:46.194Z,98355.39
2019-01-13T17:40:48.459Z,98347.41
2019-01-13T17:45:51.517Z,98345.29
2019-01-13T17:50:53.776Z,98340.45
2019-01-13T17:55:56.682Z,98330.22
2019-01-13T18:01:45.688Z,98335.27
2019-01-13T18:06:48.594Z,98319.38
2019-01-13T18:11:51.022Z,98323.91
2019-01-13T18:16:53.175Z,98304.75
2019-01-13T18:21:55.595Z,98311.13
2019-01-13T18:26:58.244Z,98309.17
2019-01-13T18:32:00.906Z,98306.05
2019-01-13T18:37:03.841Z,98296.13
2019-01-13T18:42:06.065Z,98301.30
2019-01-13T18:47:08.686Z,98298.31
2019-01-13T18:52:10.868Z,98303.28
2019-01-13T18:57:13.106Z,98317.28
2019-01-13T19:02:15.865Z,98315.30
2019-01-13T19:07:18.053Z,98320.02
2019-01-13T19:12:20.279Z,98334.55
2019-01-13T19:17:25.254Z,98329.02
2019-01-13T19:22:29.878Z,98326.98
2019-01-13T19:27:32.322Z,98326.66
2019-01-13T19:32:34.515Z,98333.27
2019-01-13T19:37:37.586Z,98339.38
2019-01-13T19:42:40.046Z,98347.98
2019-01-13T19:47:43.567Z,98350.16
2019-01-13T19:52:46.706Z,98337.63
2019-01-13T19:57:49.903Z,98371.35
2019-01-13T20:02:53.197Z,98366.17
2019-01-13T20:07:55.310Z,98363.59
2019-01-13T20:12:57.531Z,98366.30
2019-01-13T20:17:59.835Z,98382.77
2019-01-13T20:23:02.039Z,98377.18
2019-01-13T20:28:04.468Z,98373.86
2019-01-13T20:33:07.254Z,98369.97
2019-01-13T20:38:09.926Z,98373.20
2019-01-13T20:43:12.226Z,98374.70
2019-01-13T20:48:14.406Z,98374.01
2019-01-13T20:53:16.560Z,98369.47
2019-01-13T20:58:19.447Z,98373.06
2019-01-13T21:03:22.410Z,98362.72
2019-01-13T21:08:24.680Z,98363.20
2019-01-13T21:13:26.886Z,98370.63
2019-01-13T21:18:30.158Z,98380.47
2019-01-13T21:23:32.329Z,98373.27
2019-01-13T21:28:34.548Z,98375.85
2019-01-13T21:33:37.224Z,98383.13
2019-01-13T21:38:39.426Z,98380.80
2019-01-13T21:43:41.915Z,98378.36
2019-01-13T21:48:44.718Z,98377.66
2019-01-13T21:53:47.062Z,98388.95
2019-01-13T21:58:49.279Z,98387.66
2019-01-13T22:03:51.609Z,98377.94
2019-01-13T22:08:56.211Z,98375.90
2019-01-13T22:13:58.568Z,98378.36
2019-01-13T22:19:01.136Z,98371.48
2019-01-13T22:24:03.639Z,98366.31
2019-01-13T22:29:06.628Z,98371.20
2019-01-13T22:34:08.850Z,98371.01
2019-01-13T22:39:11.298Z,98374.73
2019-01-13T22:44:13.994Z,98389.64
2019-01-13T22:49:16.431Z,98382.09
2019-01-13T22:54:19.267Z,98392.75
2019-01-13T22:59:21.539Z,98393.92
2019-01-13T23:04:24.341Z,98400.45
2019-01-13T23:09:27.944Z,98392.40
2019-01-13T23:14:30.058Z,98395.38
2019-01-13T23:19:32.274Z,98400.58
2019-01-13T23:24:34.706Z,98411.30
2019-01-13T23:29:37.506Z,98423.00
2019-01-13T23:34:39.718Z,98434.97
2019-01-13T23:39:42.497Z,98445.02
2019-01-13T23:44:44.975Z,98455.34
2019-01-13T23:49:47.145Z,98457.11
2019-01-13T23:54:49.838Z,98489.24
2019-01-13T23:59:52.491Z,98497.45
